sensor_id;sensor_type;location;lat;lon;timestamp;temperature;humidity
72206;DHT22;60111;48.286;7.812;2023-12-14T00:02:31;7.50;91.20
72206;DHT22;60111;48.286;7.812;2023-12-14T00:05:03;7.50;91.40
72206;DHT22;60111;48.286;7.812;2023-12-14T00:07:35;7.50;91.30
72206;DHT22;60111;48.286;7.812;2023-12-14T00:10:07;7.50;91.40
72206;DHT22;60111;48.286;7.812;2023-12-14T00:12:39;7.50;91.50
72206;DHT22;60111;48.286;7.812;2023-12-14T00:15:11;7.50;91.50
72206;DHT22;60111;48.286;7.812;2023-12-14T00:17:42;7.60;90.90
72206;DHT22;60111;48.286;7.812;2023-12-14T00:20:14;7.60;90.80
72206;DHT22;60111;48.286;7.812;2023-12-14T00:22:46;7.60;90.70
72206;DHT22;60111;48.286;7.812;2023-12-14T00:25:18;7.60;90.80
72206;DHT22;60111;48.286;7.812;2023-12-14T00:27:50;7.60;90.90
72206;DHT22;60111;48.286;7.812;2023-12-14T00:30:22;7.50;90.90
72206;DHT22;60111;48.286;7.812;2023-12-14T00:32:53;7.40;91.30
72206;DHT22;60111;48.286;7.812;2023-12-14T00:35:25;7.50;91.40
72206;DHT22;60111;48.286;7.812;2023-12-14T00:37:57;7.40;91.30
72206;DHT22;60111;48.286;7.812;2023-12-14T00:40:29;7.50;91.30
72206;DHT22;60111;48.286;7.812;2023-12-14T00:43:01;7.50;91.10
72206;DHT22;60111;48.286;7.812;2023-12-14T00:45:33;7.40;91.50
72206;DHT22;60111;48.286;7.812;2023-12-14T00:48:05;7.40;91.40
72206;DHT22;60111;48.286;7.812;2023-12-14T00:50:37;7.40;91.20
72206;DHT22;60111;48.286;7.812;2023-12-14T00:53:08;7.30;91.50
72206;DHT22;60111;48.286;7.812;2023-12-14T00:55:40;7.30;91.70
72206;DHT22;60111;48.286;7.812;2023-12-14T00:58:12;7.40;91.60
72206;DHT22;60111;48.286;7.812;2023-12-14T01:00:44;7.40;91.20
72206;DHT22;60111;48.286;7.812;2023-12-14T01:03:16;7.40;91.30
72206;DHT22;60111;48.286;7.812;2023-12-14T01:05:48;7.40;91.30
72206;DHT22;60111;48.286;7.812;2023-12-14T01:08:20;7.40;91.40
72206;DHT22;60111;48.286;7.812;2023-12-14T01:10:52;7.40;91.30
72206;DHT22;60111;48.286;7.812;2023-12-14T01:13:24;7.40;91.40
72206;DHT22;60111;48.286;7.812;2023-12-14T01:15:55;7.40;91.30
72206;DHT22;60111;48.286;7.812;2023-12-14T01:18:27;7.50;91.10
72206;DHT22;60111;48.286;7.812;2023-12-14T01:20:59;7.50;90.90
72206;DHT22;60111;48.286;7.812;2023-12-14T01:23:31;7.50;91.00
72206;DHT22;60111;48.286;7.812;2023-12-14T01:26:03;7.50;91.10
72206;DHT22;60111;48.286;7.812;2023-12-14T01:28:35;7.40;91.20
72206;DHT22;60111;48.286;7.812;2023-12-14T01:31:06;7.40;91.50
72206;DHT22;60111;48.286;7.812;2023-12-14T01:33:38;7.40;91.40
72206;DHT22;60111;48.286;7.812;2023-12-14T01:36:10;7.40;91.40
72206;DHT22;60111;48.286;7.812;2023-12-14T01:38:42;7.40;91.70
72206;DHT22;60111;48.286;7.812;2023-12-14T01:41:14;7.30;91.60
72206;DHT22;60111;48.286;7.812;2023-12-14T01:43:46;7.40;91.30
72206;DHT22;60111;48.286;7.812;2023-12-14T01:46:18;7.30;91.50
72206;DHT22;60111;48.286;7.812;2023-12-14T01:48:50;7.40;91.40
72206;DHT22;60111;48.286;7.812;2023-12-14T01:51:23;7.30;91.10
72206;DHT22;60111;48.286;7.812;2023-12-14T01:53:55;7.30;91.50
72206;DHT22;60111;48.286;7.812;2023-12-14T01:56:27;7.30;91.70
72206;DHT22;60111;48.286;7.812;2023-12-14T01:58:59;7.30;91.70
72206;DHT22;60111;48.286;7.812;2023-12-14T02:01:38;7.30;91.60
72206;DHT22;60111;48.286;7.812;2023-12-14T02:04:11;7.30;91.70
72206;DHT22;60111;48.286;7.812;2023-12-14T02:06:43;7.30;91.60
72206;DHT22;60111;48.286;7.812;2023-12-14T02:09:15;7.30;91.80
72206;DHT22;60111;48.286;7.812;2023-12-14T02:11:47;7.30;91.80
72206;DHT22;60111;48.286;7.812;2023-12-14T02:14:21;7.30;92.00
72206;DHT22;60111;48.286;7.812;2023-12-14T02:16:54;7.30;91.90
72206;DHT22;60111;48.286;7.812;2023-12-14T02:19:26;7.30;91.80
72206;DHT22;60111;48.286;7.812;2023-12-14T02:21:58;7.40;91.10
72206;DHT22;60111;48.286;7.812;2023-12-14T02:24:30;7.30;91.20
72206;DHT22;60111;48.286;7.812;2023-12-14T02:27:01;7.30;91.50
72206;DHT22;60111;48.286;7.812;2023-12-14T02:29:34;7.30;91.50
72206;DHT22;60111;48.286;7.812;2023-12-14T02:32:06;7.40;91.10
72206;DHT22;60111;48.286;7.812;2023-12-14T02:34:37;7.40;90.70
72206;DHT22;60111;48.286;7.812;2023-12-14T02:37:09;7.40;90.00
72206;DHT22;60111;48.286;7.812;2023-12-14T02:39:42;7.50;89.40
72206;DHT22;60111;48.286;7.812;2023-12-14T02:42:13;7.50;89.10
72206;DHT22;60111;48.286;7.812;2023-12-14T02:44:46;7.40;89.50
72206;DHT22;60111;48.286;7.812;2023-12-14T02:47:18;7.40;89.70
72206;DHT22;60111;48.286;7.812;2023-12-14T02:49:50;7.30;89.60
72206;DHT22;60111;48.286;7.812;2023-12-14T02:52:22;7.30;89.90
72206;DHT22;60111;48.286;7.812;2023-12-14T02:54:54;7.30;90.00
72206;DHT22;60111;48.286;7.812;2023-12-14T02:57:25;7.30;89.80
72206;DHT22;60111;48.286;7.812;2023-12-14T02:59:57;7.20;90.10
72206;DHT22;60111;48.286;7.812;2023-12-14T03:02:29;7.20;90.40
72206;DHT22;60111;48.286;7.812;2023-12-14T03:05:01;7.20;90.80
72206;DHT22;60111;48.286;7.812;2023-12-14T03:07:33;7.20;90.90
72206;DHT22;60111;48.286;7.812;2023-12-14T03:10:05;7.10;91.00
72206;DHT22;60111;48.286;7.812;2023-12-14T03:12:37;7.10;91.20
72206;DHT22;60111;48.286;7.812;2023-12-14T03:15:09;7.10;91.30
72206;DHT22;60111;48.286;7.812;2023-12-14T03:17:41;7.20;91.20
72206;DHT22;60111;48.286;7.812;2023-12-14T03:20:13;7.20;90.70
72206;DHT22;60111;48.286;7.812;2023-12-14T03:22:45;7.10;90.90
72206;DHT22;60111;48.286;7.812;2023-12-14T03:25:18;7.10;91.10
72206;DHT22;60111;48.286;7.812;2023-12-14T03:27:50;7.10;91.30
72206;DHT22;60111;48.286;7.812;2023-12-14T03:30:22;7.10;91.40
72206;DHT22;60111;48.286;7.812;2023-12-14T03:32:54;7.10;91.40
72206;DHT22;60111;48.286;7.812;2023-12-14T03:35:25;7.10;91.50
72206;DHT22;60111;48.286;7.812;2023-12-14T03:37:57;7.10;91.50
72206;DHT22;60111;48.286;7.812;2023-12-14T03:40:29;7.10;91.60
72206;DHT22;60111;48.286;7.812;2023-12-14T03:43:01;7.00;91.60
72206;DHT22;60111;48.286;7.812;2023-12-14T03:45:34;7.10;91.50
72206;DHT22;60111;48.286;7.812;2023-12-14T03:48:06;7.10;91.50
72206;DHT22;60111;48.286;7.812;2023-12-14T03:50:37;7.10;91.30
72206;DHT22;60111;48.286;7.812;2023-12-14T03:53:09;7.10;91.00
72206;DHT22;60111;48.286;7.812;2023-12-14T03:55:41;7.10;90.60
72206;DHT22;60111;48.286;7.812;2023-12-14T03:58:13;7.10;90.30
72206;DHT22;60111;48.286;7.812;2023-12-14T04:00:45;7.10;90.30
72206;DHT22;60111;48.286;7.812;2023-12-14T04:03:17;7.10;90.30
72206;DHT22;60111;48.286;7.812;2023-12-14T04:05:49;7.20;90.10
72206;DHT22;60111;48.286;7.812;2023-12-14T04:08:21;7.20;90.10
72206;DHT22;60111;48.286;7.812;2023-12-14T04:10:53;7.20;90.10
72206;DHT22;60111;48.286;7.812;2023-12-14T04:13:25;7.20;89.90
72206;DHT22;60111;48.286;7.812;2023-12-14T04:15:57;7.10;90.00
72206;DHT22;60111;48.286;7.812;2023-12-14T04:18:29;7.10;90.20
72206;DHT22;60111;48.286;7.812;2023-12-14T04:21:01;7.10;90.40
72206;DHT22;60111;48.286;7.812;2023-12-14T04:23:33;7.10;90.50
72206;DHT22;60111;48.286;7.812;2023-12-14T04:26:05;7.10;90.50
72206;DHT22;60111;48.286;7.812;2023-12-14T04:28:38;7.10;90.50
72206;DHT22;60111;48.286;7.812;2023-12-14T04:31:10;7.20;90.50
72206;DHT22;60111;48.286;7.812;2023-12-14T04:33:42;7.20;90.50
72206;DHT22;60111;48.286;7.812;2023-12-14T04:36:14;7.20;90.20
72206;DHT22;60111;48.286;7.812;2023-12-14T04:38:45;7.20;90.40
72206;DHT22;60111;48.286;7.812;2023-12-14T04:41:17;7.20;90.50
72206;DHT22;60111;48.286;7.812;2023-12-14T04:43:49;7.20;90.70
72206;DHT22;60111;48.286;7.812;2023-12-14T04:46:21;7.30;90.30
72206;DHT22;60111;48.286;7.812;2023-12-14T04:48:54;7.30;90.10
72206;DHT22;60111;48.286;7.812;2023-12-14T04:51:26;7.30;89.90
72206;DHT22;60111;48.286;7.812;2023-12-14T04:53:58;7.40;89.60
72206;DHT22;60111;48.286;7.812;2023-12-14T04:56:30;7.40;89.80
72206;DHT22;60111;48.286;7.812;2023-12-14T04:59:01;7.40;89.70
72206;DHT22;60111;48.286;7.812;2023-12-14T05:01:33;7.30;90.00
72206;DHT22;60111;48.286;7.812;2023-12-14T05:04:05;7.30;90.30
72206;DHT22;60111;48.286;7.812;2023-12-14T05:06:38;7.30;90.70
72206;DHT22;60111;48.286;7.812;2023-12-14T05:09:10;7.20;90.60
72206;DHT22;60111;48.286;7.812;2023-12-14T05:11:42;7.30;90.60
72206;DHT22;60111;48.286;7.812;2023-12-14T05:14:14;7.30;90.00
72206;DHT22;60111;48.286;7.812;2023-12-14T05:16:46;7.30;90.30
72206;DHT22;60111;48.286;7.812;2023-12-14T05:19:18;7.30;90.40
72206;DHT22;60111;48.286;7.812;2023-12-14T05:21:50;7.30;90.20
72206;DHT22;60111;48.286;7.812;2023-12-14T05:24:24;7.30;90.40
72206;DHT22;60111;48.286;7.812;2023-12-14T05:26:56;7.30;90.50
72206;DHT22;60111;48.286;7.812;2023-12-14T05:29:27;7.30;90.60
72206;DHT22;60111;48.286;7.812;2023-12-14T05:31:59;7.20;90.90
72206;DHT22;60111;48.286;7.812;2023-12-14T05:34:31;7.30;91.00
72206;DHT22;60111;48.286;7.812;2023-12-14T05:37:03;7.20;91.20
72206;DHT22;60111;48.286;7.812;2023-12-14T05:39:35;7.20;91.30
72206;DHT22;60111;48.286;7.812;2023-12-14T05:42:07;7.20;91.40
72206;DHT22;60111;48.286;7.812;2023-12-14T05:44:39;7.20;91.50
72206;DHT22;60111;48.286;7.812;2023-12-14T05:47:10;7.20;91.80
72206;DHT22;60111;48.286;7.812;2023-12-14T05:49:43;7.10;91.90
72206;DHT22;60111;48.286;7.812;2023-12-14T05:52:15;7.10;92.20
72206;DHT22;60111;48.286;7.812;2023-12-14T05:54:46;7.10;92.30
72206;DHT22;60111;48.286;7.812;2023-12-14T05:57:18;7.10;92.40
72206;DHT22;60111;48.286;7.812;2023-12-14T05:59:50;7.10;92.60
72206;DHT22;60111;48.286;7.812;2023-12-14T06:02:22;7.10;92.70
72206;DHT22;60111;48.286;7.812;2023-12-14T06:04:54;7.10;92.80
72206;DHT22;60111;48.286;7.812;2023-12-14T06:07:27;7.10;92.90
72206;DHT22;60111;48.286;7.812;2023-12-14T06:09:59;7.10;92.90
72206;DHT22;60111;48.286;7.812;2023-12-14T06:12:32;7.20;92.70
72206;DHT22;60111;48.286;7.812;2023-12-14T06:15:04;7.20;92.60
72206;DHT22;60111;48.286;7.812;2023-12-14T06:17:37;7.20;92.60
72206;DHT22;60111;48.286;7.812;2023-12-14T06:20:10;7.20;92.50
72206;DHT22;60111;48.286;7.812;2023-12-14T06:22:42;7.20;92.40
72206;DHT22;60111;48.286;7.812;2023-12-14T06:25:14;7.20;92.40
72206;DHT22;60111;48.286;7.812;2023-12-14T06:27:46;7.20;92.20
72206;DHT22;60111;48.286;7.812;2023-12-14T06:30:17;7.20;92.30
72206;DHT22;60111;48.286;7.812;2023-12-14T06:32:49;7.20;92.20
72206;DHT22;60111;48.286;7.812;2023-12-14T06:35:21;7.20;92.30
72206;DHT22;60111;48.286;7.812;2023-12-14T06:37:53;7.20;92.10
72206;DHT22;60111;48.286;7.812;2023-12-14T06:40:25;7.20;92.10
72206;DHT22;60111;48.286;7.812;2023-12-14T06:42:57;7.20;92.20
72206;DHT22;60111;48.286;7.812;2023-12-14T06:45:29;7.20;92.30
72206;DHT22;60111;48.286;7.812;2023-12-14T06:48:00;7.20;92.40
72206;DHT22;60111;48.286;7.812;2023-12-14T06:50:32;7.20;92.40
72206;DHT22;60111;48.286;7.812;2023-12-14T06:53:04;7.20;92.50
72206;DHT22;60111;48.286;7.812;2023-12-14T06:55:36;7.20;92.60
72206;DHT22;60111;48.286;7.812;2023-12-14T06:58:08;7.10;92.60
72206;DHT22;60111;48.286;7.812;2023-12-14T07:00:41;7.10;92.50
72206;DHT22;60111;48.286;7.812;2023-12-14T07:03:13;7.10;92.60
72206;DHT22;60111;48.286;7.812;2023-12-14T07:05:45;7.10;92.80
72206;DHT22;60111;48.286;7.812;2023-12-14T07:08:17;7.10;92.90
72206;DHT22;60111;48.286;7.812;2023-12-14T07:10:49;7.10;92.90
72206;DHT22;60111;48.286;7.812;2023-12-14T07:13:21;7.10;93.10
72206;DHT22;60111;48.286;7.812;2023-12-14T07:15:52;7.10;93.10
72206;DHT22;60111;48.286;7.812;2023-12-14T07:18:24;7.10;93.00
72206;DHT22;60111;48.286;7.812;2023-12-14T07:20:56;7.10;92.90
72206;DHT22;60111;48.286;7.812;2023-12-14T07:23:28;7.20;93.00
72206;DHT22;60111;48.286;7.812;2023-12-14T07:26:00;7.10;92.90
72206;DHT22;60111;48.286;7.812;2023-12-14T07:28:32;7.20;92.90
72206;DHT22;60111;48.286;7.812;2023-12-14T07:31:04;7.30;92.60
72206;DHT22;60111;48.286;7.812;2023-12-14T07:33:36;7.30;92.00
72206;DHT22;60111;48.286;7.812;2023-12-14T07:36:08;7.30;91.70
72206;DHT22;60111;48.286;7.812;2023-12-14T07:38:40;7.40;91.40
72206;DHT22;60111;48.286;7.812;2023-12-14T07:41:12;7.40;91.40
72206;DHT22;60111;48.286;7.812;2023-12-14T07:43:44;7.40;91.70
72206;DHT22;60111;48.286;7.812;2023-12-14T07:46:15;7.40;91.70
72206;DHT22;60111;48.286;7.812;2023-12-14T07:48:47;7.30;91.60
72206;DHT22;60111;48.286;7.812;2023-12-14T07:51:21;7.30;92.00
72206;DHT22;60111;48.286;7.812;2023-12-14T07:53:52;7.30;91.50
72206;DHT22;60111;48.286;7.812;2023-12-14T07:56:24;7.30;91.60
72206;DHT22;60111;48.286;7.812;2023-12-14T07:58:58;7.30;91.80
72206;DHT22;60111;48.286;7.812;2023-12-14T08:01:29;7.30;92.10
72206;DHT22;60111;48.286;7.812;2023-12-14T08:04:02;7.30;91.90
72206;DHT22;60111;48.286;7.812;2023-12-14T08:06:35;7.40;91.70
72206;DHT22;60111;48.286;7.812;2023-12-14T08:09:07;7.40;91.60
72206;DHT22;60111;48.286;7.812;2023-12-14T08:11:39;7.30;91.60
72206;DHT22;60111;48.286;7.812;2023-12-14T08:14:11;7.40;91.60
72206;DHT22;60111;48.286;7.812;2023-12-14T08:16:43;7.40;91.40
72206;DHT22;60111;48.286;7.812;2023-12-14T08:19:15;7.40;91.60
72206;DHT22;60111;48.286;7.812;2023-12-14T08:21:47;7.40;91.50
72206;DHT22;60111;48.286;7.812;2023-12-14T08:24:18;7.40;91.50
72206;DHT22;60111;48.286;7.812;2023-12-14T08:26:51;7.40;91.40
72206;DHT22;60111;48.286;7.812;2023-12-14T08:29:23;7.40;91.30
72206;DHT22;60111;48.286;7.812;2023-12-14T08:31:55;7.40;91.50
72206;DHT22;60111;48.286;7.812;2023-12-14T08:34:30;7.40;91.60
72206;DHT22;60111;48.286;7.812;2023-12-14T08:37:02;7.30;91.80
72206;DHT22;60111;48.286;7.812;2023-12-14T08:39:33;7.40;92.00
72206;DHT22;60111;48.286;7.812;2023-12-14T08:42:05;7.40;92.20
72206;DHT22;60111;48.286;7.812;2023-12-14T08:44:40;7.40;92.30
72206;DHT22;60111;48.286;7.812;2023-12-14T08:47:12;7.40;92.50
72206;DHT22;60111;48.286;7.812;2023-12-14T08:49:44;7.40;92.60
72206;DHT22;60111;48.286;7.812;2023-12-14T08:52:16;7.40;92.70
72206;DHT22;60111;48.286;7.812;2023-12-14T08:54:48;7.40;92.80
72206;DHT22;60111;48.286;7.812;2023-12-14T08:57:21;7.40;92.80
72206;DHT22;60111;48.286;7.812;2023-12-14T08:59:53;7.40;93.00
72206;DHT22;60111;48.286;7.812;2023-12-14T09:02:25;7.40;93.00
72206;DHT22;60111;48.286;7.812;2023-12-14T09:04:56;7.40;93.00
72206;DHT22;60111;48.286;7.812;2023-12-14T09:07:28;7.40;93.00
72206;DHT22;60111;48.286;7.812;2023-12-14T09:10:00;7.50;93.10
72206;DHT22;60111;48.286;7.812;2023-12-14T09:12:32;7.60;92.10
72206;DHT22;60111;48.286;7.812;2023-12-14T09:15:05;7.60;91.60
72206;DHT22;60111;48.286;7.812;2023-12-14T09:17:37;7.60;91.50
72206;DHT22;60111;48.286;7.812;2023-12-14T09:20:09;7.50;91.60
72206;DHT22;60111;48.286;7.812;2023-12-14T09:22:42;7.50;91.90
72206;DHT22;60111;48.286;7.812;2023-12-14T09:25:14;7.50;92.10
72206;DHT22;60111;48.286;7.812;2023-12-14T09:27:46;7.50;92.30
72206;DHT22;60111;48.286;7.812;2023-12-14T09:30:18;7.50;92.60
72206;DHT22;60111;48.286;7.812;2023-12-14T09:32:51;7.50;92.80
72206;DHT22;60111;48.286;7.812;2023-12-14T09:35:23;7.50;92.90
72206;DHT22;60111;48.286;7.812;2023-12-14T09:37:55;7.50;92.80
72206;DHT22;60111;48.286;7.812;2023-12-14T09:40:27;7.60;92.50
72206;DHT22;60111;48.286;7.812;2023-12-14T09:42:59;7.60;91.90
72206;DHT22;60111;48.286;7.812;2023-12-14T09:45:31;7.70;91.70
72206;DHT22;60111;48.286;7.812;2023-12-14T09:48:03;7.70;91.30
72206;DHT22;60111;48.286;7.812;2023-12-14T09:50:35;7.80;91.10
72206;DHT22;60111;48.286;7.812;2023-12-14T09:53:07;7.80;90.70
72206;DHT22;60111;48.286;7.812;2023-12-14T09:55:39;7.80;90.60
72206;DHT22;60111;48.286;7.812;2023-12-14T09:58:11;7.80;90.90
72206;DHT22;60111;48.286;7.812;2023-12-14T10:00:43;7.70;91.00
72206;DHT22;60111;48.286;7.812;2023-12-14T10:03:23;7.70;91.00
72206;DHT22;60111;48.286;7.812;2023-12-14T10:05:57;7.70;91.00
72206;DHT22;60111;48.286;7.812;2023-12-14T10:08:29;7.80;90.80
72206;DHT22;60111;48.286;7.812;2023-12-14T10:11:01;7.80;91.00
72206;DHT22;60111;48.286;7.812;2023-12-14T10:13:37;7.80;91.00
72206;DHT22;60111;48.286;7.812;2023-12-14T10:16:10;7.80;91.00
72206;DHT22;60111;48.286;7.812;2023-12-14T10:18:41;7.80;91.30
72206;DHT22;60111;48.286;7.812;2023-12-14T10:21:13;7.80;91.60
72206;DHT22;60111;48.286;7.812;2023-12-14T10:23:45;7.90;91.00
72206;DHT22;60111;48.286;7.812;2023-12-14T10:26:17;8.10;89.70
72206;DHT22;60111;48.286;7.812;2023-12-14T10:28:53;8.00;90.00
72206;DHT22;60111;48.286;7.812;2023-12-14T10:31:23;8.00;90.40
72206;DHT22;60111;48.286;7.812;2023-12-14T10:33:57;8.00;90.20
72206;DHT22;60111;48.286;7.812;2023-12-14T10:36:29;8.10;89.90
72206;DHT22;60111;48.286;7.812;2023-12-14T10:39:01;8.20;89.40
72206;DHT22;60111;48.286;7.812;2023-12-14T10:41:34;8.20;89.50
72206;DHT22;60111;48.286;7.812;2023-12-14T10:44:06;8.20;89.60
72206;DHT22;60111;48.286;7.812;2023-12-14T10:46:38;8.40;88.70
72206;DHT22;60111;48.286;7.812;2023-12-14T10:49:10;8.50;89.60
72206;DHT22;60111;48.286;7.812;2023-12-14T10:51:42;8.80;89.70
72206;DHT22;60111;48.286;7.812;2023-12-14T10:54:14;9.10;87.40
72206;DHT22;60111;48.286;7.812;2023-12-14T10:56:47;9.10;85.50
72206;DHT22;60111;48.286;7.812;2023-12-14T10:59:19;9.10;86.30
72206;DHT22;60111;48.286;7.812;2023-12-14T11:01:52;9.00;86.70
72206;DHT22;60111;48.286;7.812;2023-12-14T11:04:29;9.00;87.00
72206;DHT22;60111;48.286;7.812;2023-12-14T11:06:58;8.90;86.10
72206;DHT22;60111;48.286;7.812;2023-12-14T11:09:30;8.80;85.70
72206;DHT22;60111;48.286;7.812;2023-12-14T11:12:02;8.80;86.20
72206;DHT22;60111;48.286;7.812;2023-12-14T11:14:35;8.80;86.70
72206;DHT22;60111;48.286;7.812;2023-12-14T11:17:06;8.70;87.40
72206;DHT22;60111;48.286;7.812;2023-12-14T11:19:40;8.70;87.00
72206;DHT22;60111;48.286;7.812;2023-12-14T11:22:12;8.70;86.90
72206;DHT22;60111;48.286;7.812;2023-12-14T11:24:53;8.70;87.10
72206;DHT22;60111;48.286;7.812;2023-12-14T11:27:26;8.80;86.20
72206;DHT22;60111;48.286;7.812;2023-12-14T11:29:58;8.70;85.80
72206;DHT22;60111;48.286;7.812;2023-12-14T11:32:31;8.70;86.00
72206;DHT22;60111;48.286;7.812;2023-12-14T11:35:03;8.70;85.90
72206;DHT22;60111;48.286;7.812;2023-12-14T11:37:34;8.70;86.30
72206;DHT22;60111;48.286;7.812;2023-12-14T11:40:07;8.70;86.50
72206;DHT22;60111;48.286;7.812;2023-12-14T11:42:40;8.70;86.70
72206;DHT22;60111;48.286;7.812;2023-12-14T11:45:12;8.70;86.10
72206;DHT22;60111;48.286;7.812;2023-12-14T11:47:44;8.70;85.30
72206;DHT22;60111;48.286;7.812;2023-12-14T11:50:16;8.70;86.00
72206;DHT22;60111;48.286;7.812;2023-12-14T11:52:47;8.70;85.90
72206;DHT22;60111;48.286;7.812;2023-12-14T11:55:21;8.70;86.50
72206;DHT22;60111;48.286;7.812;2023-12-14T11:57:53;8.80;86.50
72206;DHT22;60111;48.286;7.812;2023-12-14T12:00:25;8.70;86.90
72206;DHT22;60111;48.286;7.812;2023-12-14T12:03:11;8.70;87.20
72206;DHT22;60111;48.286;7.812;2023-12-14T12:05:44;8.80;86.10
72206;DHT22;60111;48.286;7.812;2023-12-14T12:08:17;8.80;85.50
72206;DHT22;60111;48.286;7.812;2023-12-14T12:10:52;8.90;85.50
72206;DHT22;60111;48.286;7.812;2023-12-14T12:13:24;8.90;86.10
72206;DHT22;60111;48.286;7.812;2023-12-14T12:15:56;9.00;85.50
72206;DHT22;60111;48.286;7.812;2023-12-14T12:18:28;9.00;85.70
72206;DHT22;60111;48.286;7.812;2023-12-14T12:21:00;9.00;85.00
72206;DHT22;60111;48.286;7.812;2023-12-14T12:23:34;9.00;84.80
72206;DHT22;60111;48.286;7.812;2023-12-14T12:26:05;9.20;84.00
72206;DHT22;60111;48.286;7.812;2023-12-14T12:28:37;9.10;84.70
72206;DHT22;60111;48.286;7.812;2023-12-14T12:31:09;9.10;84.80
72206;DHT22;60111;48.286;7.812;2023-12-14T12:33:41;9.00;85.10
72206;DHT22;60111;48.286;7.812;2023-12-14T12:36:13;9.00;84.80
72206;DHT22;60111;48.286;7.812;2023-12-14T12:38:46;9.00;84.90
72206;DHT22;60111;48.286;7.812;2023-12-14T12:41:18;9.00;85.00
72206;DHT22;60111;48.286;7.812;2023-12-14T12:43:49;9.00;85.00
72206;DHT22;60111;48.286;7.812;2023-12-14T12:46:21;9.00;85.20
72206;DHT22;60111;48.286;7.812;2023-12-14T12:48:53;8.90;85.60
72206;DHT22;60111;48.286;7.812;2023-12-14T12:51:25;9.00;85.60
72206;DHT22;60111;48.286;7.812;2023-12-14T12:53:58;9.00;85.50
72206;DHT22;60111;48.286;7.812;2023-12-14T12:56:30;9.00;85.60
72206;DHT22;60111;48.286;7.812;2023-12-14T12:59:02;9.00;85.30
72206;DHT22;60111;48.286;7.812;2023-12-14T13:01:35;9.10;85.30
72206;DHT22;60111;48.286;7.812;2023-12-14T13:04:17;9.00;85.50
72206;DHT22;60111;48.286;7.812;2023-12-14T13:06:41;9.00;85.80
72206;DHT22;60111;48.286;7.812;2023-12-14T13:09:13;9.00;85.80
72206;DHT22;60111;48.286;7.812;2023-12-14T13:11:45;9.10;84.90
72206;DHT22;60111;48.286;7.812;2023-12-14T13:14:17;9.10;84.60
72206;DHT22;60111;48.286;7.812;2023-12-14T13:16:49;9.20;85.20
72206;DHT22;60111;48.286;7.812;2023-12-14T13:19:21;9.20;84.60
72206;DHT22;60111;48.286;7.812;2023-12-14T13:21:54;9.20;84.50
72206;DHT22;60111;48.286;7.812;2023-12-14T13:24:27;9.20;84.50
72206;DHT22;60111;48.286;7.812;2023-12-14T13:27:00;9.20;84.50
72206;DHT22;60111;48.286;7.812;2023-12-14T13:29:32;9.20;84.80
72206;DHT22;60111;48.286;7.812;2023-12-14T13:32:05;9.30;85.00
72206;DHT22;60111;48.286;7.812;2023-12-14T13:34:37;9.40;85.10
72206;DHT22;60111;48.286;7.812;2023-12-14T13:37:09;9.50;83.90
72206;DHT22;60111;48.286;7.812;2023-12-14T13:39:40;9.60;83.60
72206;DHT22;60111;48.286;7.812;2023-12-14T13:42:14;9.60;83.60
72206;DHT22;60111;48.286;7.812;2023-12-14T13:44:46;9.50;84.00
72206;DHT22;60111;48.286;7.812;2023-12-14T13:47:18;9.50;84.40
72206;DHT22;60111;48.286;7.812;2023-12-14T13:49:50;9.40;84.90
72206;DHT22;60111;48.286;7.812;2023-12-14T13:52:23;9.30;85.70
72206;DHT22;60111;48.286;7.812;2023-12-14T13:54:55;9.30;86.30
72206;DHT22;60111;48.286;7.812;2023-12-14T13:57:27;9.40;85.70
72206;DHT22;60111;48.286;7.812;2023-12-14T13:59:59;9.30;85.80
72206;DHT22;60111;48.286;7.812;2023-12-14T14:02:31;9.20;86.20
72206;DHT22;60111;48.286;7.812;2023-12-14T14:05:03;9.20;85.80
72206;DHT22;60111;48.286;7.812;2023-12-14T14:07:34;9.20;81.70
72206;DHT22;60111;48.286;7.812;2023-12-14T14:10:07;9.20;82.20
72206;DHT22;60111;48.286;7.812;2023-12-14T14:12:39;9.20;82.30
72206;DHT22;60111;48.286;7.812;2023-12-14T14:15:10;9.10;81.50
72206;DHT22;60111;48.286;7.812;2023-12-14T14:17:42;9.10;82.40
72206;DHT22;60111;48.286;7.812;2023-12-14T14:20:14;9.10;82.10
72206;DHT22;60111;48.286;7.812;2023-12-14T14:22:46;9.10;83.00
72206;DHT22;60111;48.286;7.812;2023-12-14T14:25:18;9.10;82.90
72206;DHT22;60111;48.286;7.812;2023-12-14T14:27:50;9.00;82.50
72206;DHT22;60111;48.286;7.812;2023-12-14T14:30:22;9.00;83.00
72206;DHT22;60111;48.286;7.812;2023-12-14T14:32:54;8.90;83.00
72206;DHT22;60111;48.286;7.812;2023-12-14T14:35:25;8.90;83.50
72206;DHT22;60111;48.286;7.812;2023-12-14T14:37:58;8.90;83.70
72206;DHT22;60111;48.286;7.812;2023-12-14T14:40:30;8.90;83.90
72206;DHT22;60111;48.286;7.812;2023-12-14T14:43:02;8.90;83.20
72206;DHT22;60111;48.286;7.812;2023-12-14T14:45:34;8.80;83.60
72206;DHT22;60111;48.286;7.812;2023-12-14T14:48:05;8.80;84.10
72206;DHT22;60111;48.286;7.812;2023-12-14T14:50:39;8.70;84.30
72206;DHT22;60111;48.286;7.812;2023-12-14T14:53:11;8.80;84.50
72206;DHT22;60111;48.286;7.812;2023-12-14T14:55:43;8.70;84.60
72206;DHT22;60111;48.286;7.812;2023-12-14T14:58:15;8.80;83.80
72206;DHT22;60111;48.286;7.812;2023-12-14T15:00:47;8.80;83.90
72206;DHT22;60111;48.286;7.812;2023-12-14T15:03:19;8.70;83.70
72206;DHT22;60111;48.286;7.812;2023-12-14T15:05:52;8.60;84.10
72206;DHT22;60111;48.286;7.812;2023-12-14T15:08:24;8.60;84.50
72206;DHT22;60111;48.286;7.812;2023-12-14T15:10:56;8.60;84.80
72206;DHT22;60111;48.286;7.812;2023-12-14T15:13:28;8.50;85.30
72206;DHT22;60111;48.286;7.812;2023-12-14T15:16:00;8.50;85.70
72206;DHT22;60111;48.286;7.812;2023-12-14T15:18:32;8.50;85.70
72206;DHT22;60111;48.286;7.812;2023-12-14T15:21:06;8.50;86.10
72206;DHT22;60111;48.286;7.812;2023-12-14T15:23:38;8.40;86.60
72206;DHT22;60111;48.286;7.812;2023-12-14T15:26:10;8.40;87.00
72206;DHT22;60111;48.286;7.812;2023-12-14T15:28:42;8.30;87.40
72206;DHT22;60111;48.286;7.812;2023-12-14T15:31:14;8.40;87.60
72206;DHT22;60111;48.286;7.812;2023-12-14T15:33:46;8.30;87.80
72206;DHT22;60111;48.286;7.812;2023-12-14T15:36:18;8.40;88.00
72206;DHT22;60111;48.286;7.812;2023-12-14T15:38:50;8.40;88.00
72206;DHT22;60111;48.286;7.812;2023-12-14T15:41:22;8.40;88.10
72206;DHT22;60111;48.286;7.812;2023-12-14T15:43:54;8.40;88.10
72206;DHT22;60111;48.286;7.812;2023-12-14T15:46:26;8.30;88.10
72206;DHT22;60111;48.286;7.812;2023-12-14T15:48:57;8.40;88.10
72206;DHT22;60111;48.286;7.812;2023-12-14T15:51:29;8.40;88.10
72206;DHT22;60111;48.286;7.812;2023-12-14T15:54:01;8.40;88.10
72206;DHT22;60111;48.286;7.812;2023-12-14T15:56:33;8.30;88.10
72206;DHT22;60111;48.286;7.812;2023-12-14T15:59:05;8.30;88.20
72206;DHT22;60111;48.286;7.812;2023-12-14T16:01:38;8.30;88.20
72206;DHT22;60111;48.286;7.812;2023-12-14T16:04:11;8.30;88.20
72206;DHT22;60111;48.286;7.812;2023-12-14T16:06:43;8.30;88.20
72206;DHT22;60111;48.286;7.812;2023-12-14T16:09:15;8.20;88.40
72206;DHT22;60111;48.286;7.812;2023-12-14T16:11:47;8.20;88.40
72206;DHT22;60111;48.286;7.812;2023-12-14T16:14:18;8.20;88.50
72206;DHT22;60111;48.286;7.812;2023-12-14T16:16:50;8.10;88.60